Home   Weather   Canada   Toronto   Past weeks
Flag for Canada

Past Weather in Toronto, Ontario, Canada — March 2017

Currently: 79 °F. Cloudy. (Weather station: Toronto Pearson International Airport, Canada). See more current weather

March 2017 Weather in Toronto — Graph

°F

High & Low Weather Summary for March 2017

 TemperatureHumidityPressure
High59 °F (Mar 27, 3:00 pm)100% (Mar 1, 1:20 am)30.76 "Hg (Mar 1, 1:20 am)
Low9 °F (Mar 11, 5:00 am)17% (Mar 21, 12:00 pm)29.20 "Hg (Mar 1, 5:28 pm)
Average32 °F68%30.12 "Hg
* Reported Mar 1 12:00 am — Mar 31 11:28 pm, Toronto. Weather by CustomWeather, © 2021

Note: Actual official high and low records may vary slightly from our data, if they occured in-between our weather recording intervals... More about our weather records

Toronto Weather History for March 1, 2017

Scroll right to see more
 ConditionsComfort  
Time TempWeatherWind HumidityBarometerVisibility
12:00 am
Wed, Mar 1
46 °FSprinkles. Mostly cloudy.8 mph87%29.68 "Hg12 mi
12:36 am45 °FSprinkles. Mostly cloudy.6 mph93%29.66 "Hg12 mi
1:00 am46 °FThunderstorms. Mostly cloudy.5 mph93%29.65 "Hg8 mi
1:20 am46 °FRain showers. Mostly cloudy.5 mph100%29.62 "Hg6 mi
1:43 am48 °FLight rain. Fog.3 mph94%29.61 "Hg5 mi
2:00 am48 °FLight rain. Fog.8 mph100%29.58 "Hg2 mi
2:26 am50 °FRain. Fog.6 mph100%29.56 "Hg4 mi
3:00 am48 °FLight rain. Fog.10 mph100%29.52 "Hg3 mi
3:10 am48 °FRain. Fog.7 mph100%29.51 "Hg2 mi
3:31 am48 °FLight rain. Fog.8 mph100%29.48 "Hg2 mi
4:00 am48 °FLight rain. Fog.6 mph100%29.46 "Hg1 mi
4:18 am48 °FCool.6 mph100%29.44 "Hg1 mi
4:32 am48 °FFog.5 mph100%29.44 "Hg0 mi
4:50 am48 °FLight rain. Fog.5 mph100%29.45 "Hg0 mi
5:00 am48 °FLight rain. Fog.5 mph100%29.44 "Hg0 mi
5:42 am50 °FCool.5 mph100%29.42 "Hg1 mi
6:00 am50 °FLight rain. Fog.3 mph94%29.42 "Hg3 mi
7:00 am52 °FLight rain. Overcast.10 mph100%29.37 "Hg8 mi
7:33 am50 °FBroken clouds.14 mph100%29.31 "Hg12 mi
7:40 am50 °FMostly cloudy.12 mph100%29.30 "Hg12 mi
8:00 am52 °FLow clouds.7 mph100%29.34 "Hg13 mi
8:36 am52 °FMostly cloudy.8 mph100%29.38 "Hg15 mi
9:00 am54 °FMore clouds than sun.13 mph88%29.37 "Hg15 mi
10:00 am55 °FPartly sunny.16 mph88%29.34 "Hg15 mi
11:00 am57 °FMostly cloudy.17 mph77%29.30 "Hg15 mi
12:00 pm55 °FOvercast.21 mph77%29.30 "Hg15 mi
1:00 pm55 °FOvercast.18 mph77%29.29 "Hg15 mi
1:27 pm54 °FLight rain. Overcast.23 mph82%29.29 "Hg12 mi
2:00 pm54 °FOvercast.23 mph88%29.28 "Hg15 mi
2:29 pm55 °FPartly sunny.22 mph82%29.25 "Hg15 mi
3:00 pm55 °FOvercast.20 mph82%29.24 "Hg15 mi
4:00 pm55 °FMostly cloudy.25 mph82%29.23 "Hg15 mi
4:28 pm54 °FLight rain. Broken clouds.20 mph88%29.22 "Hg12 mi
5:05 pm54 °FRain showers. Mostly cloudy.23 mph88%29.21 "Hg6 mi
5:16 pm54 °FSprinkles. Broken clouds.22 mph88%29.21 "Hg12 mi
5:28 pm54 °FBroken clouds.21 mph88%29.20 "Hg15 mi
6:08 pm52 °FLots of rain. Overcast.22 mph88%29.21 "Hg3 mi
6:20 pm50 °FRain showers. Mostly cloudy.24 mph88%29.23 "Hg6 mi
7:00 pm50 °FOvercast.29 mph82%29.24 "Hg15 mi
8:00 pm43 °FScattered showers. Overcast.36 mph76%29.31 "Hg15 mi
9:00 pm39 °FPartly cloudy.29 mph75%29.36 "Hg15 mi
10:00 pm36 °FMostly cloudy.35 mph70%29.40 "Hg15 mi
11:00 pm32 °FMostly cloudy.26 mph69%29.45 "Hg15 mi
Weather by CustomWeather, © 2021

See weather overview